Time;durP1;ratioP1;P1;durP2;ratioP2;P2;SDS_P1;SDS_P2;PMS_P1;PMS_P2;Temp;Humidity;BMP_temperature;BMP_pressure;BME280_temperature;BME280_humidity;BME280_pressure;Samples;Min_cycle;Max_cycle;Signal;HPM_P1;HPM_P2
2021/09/27 00:01:40;;;;;;;28.67;22.35;;;;;;;16.11;100.00;101497.06;5012422;28;20096;-75
2021/09/27 00:04:06;;;;;;;35.53;24.85;;;;;;;16.06;100.00;101488.78;4995441;28;20061;-77
2021/09/27 00:06:32;;;;;;;35.60;22.10;;;;;;;16.12;100.00;101484.66;4995009;28;20104;-77
2021/09/27 00:08:57;;;;;;;27.05;21.77;;;;;;;16.13;100.00;101489.78;5005926;28;20025;-77
2021/09/27 00:11:26;;;;;;;32.50;22.92;;;;;;;16.15;100.00;101479.84;4991021;28;20042;-72
2021/09/27 00:14:00;;;;;;;33.40;23.65;;;;;;;16.17;100.00;101490.28;4979468;28;20513;-78
2021/09/27 00:16:25;;;;;;;31.52;22.42;;;;;;;16.19;100.00;101482.19;4984252;28;20037;-72
2021/09/27 00:18:51;;;;;;;27.52;21.85;;;;;;;16.15;100.00;101473.75;4994444;28;20081;-77
2021/09/27 00:21:23;;;;;;;27.38;19.98;;;;;;;16.16;100.00;101483.31;4981146;28;20049;-78
2021/09/27 00:23:49;;;;;;;31.25;23.52;;;;;;;16.15;100.00;101477.22;4980377;28;20034;-76
2021/09/27 00:26:17;;;;;;;29.95;23.60;;;;;;;16.20;100.00;101474.09;4995514;28;20068;-77
2021/09/27 00:28:43;;;;;;;27.20;21.67;;;;;;;16.20;100.00;101465.31;4982599;28;20120;-74
2021/09/27 00:31:09;;;;;;;29.60;23.48;;;;;;;16.22;100.00;101455.38;4979131;28;20113;-77
2021/09/27 00:33:35;;;;;;;28.77;22.77;;;;;;;16.19;100.00;101453.91;4979477;28;20030;-77
2021/09/27 00:36:00;;;;;;;32.60;23.70;;;;;;;16.20;100.00;101457.34;4979423;28;20398;-74
2021/09/27 00:38:26;;;;;;;29.88;22.83;;;;;;;16.17;100.00;101455.88;4978870;28;20026;-76
2021/09/27 00:40:57;;;;;;;25.35;21.15;;;;;;;16.17;100.00;101455.88;4974602;28;20042;-78
2021/09/27 00:43:24;;;;;;;28.88;21.40;;;;;;;16.16;100.00;101451.56;4976800;28;20026;-77
2021/09/27 00:45:53;;;;;;;25.33;21.02;;;;;;;16.15;100.00;101450.75;4984822;28;21917;-75
2021/09/27 00:48:19;;;;;;;28.75;21.85;;;;;;;16.08;100.00;101441.00;4988442;28;20045;-74
2021/09/27 00:50:49;;;;;;;26.73;20.80;;;;;;;16.08;100.00;101441.00;4975806;28;20089;-74
2021/09/27 00:53:26;;;;;;;27.92;20.60;;;;;;;16.09;100.00;101442.66;4978944;28;20179;-77
2021/09/27 00:55:54;;;;;;;30.17;22.67;;;;;;;16.10;100.00;101441.66;4977655;28;20052;-73
2021/09/27 00:58:21;;;;;;;28.33;22.63;;;;;;;16.06;100.00;101432.41;4960557;28;20030;-75
2021/09/27 01:00:47;;;;;;;28.42;22.25;;;;;;;16.08;100.00;101430.41;4992842;28;20049;-77
2021/09/27 01:03:13;;;;;;;25.23;20.88;;;;;;;16.08;100.00;101441.00;4976553;28;20041;-76
2021/09/27 01:05:49;;;;;;;23.65;19.95;;;;;;;16.08;100.00;101430.41;4976353;28;20041;-74
2021/09/27 01:08:23;;;;;;;27.33;21.67;;;;;;;16.07;100.00;101432.25;4977546;28;20095;-76
2021/09/27 01:11:12;;;;;;;25.02;20.88;;;;;;;16.07;100.00;101428.78;4962657;28;20034;-73
2021/09/27 01:13:56;;;;;;;26.90;20.90;;;;;;;16.04;100.00;101426.44;4978411;28;20049;-77
2021/09/27 01:16:30;;;;;;;26.20;20.38;;;;;;;16.02;100.00;101412.56;4991878;28;20030;-77
2021/09/27 01:18:59;;;;;;;24.77;19.85;;;;;;;16.02;100.00;101418.66;4993860;28;20763;-76
2021/09/27 01:21:34;;;;;;;26.48;19.30;;;;;;;16.02;100.00;101410.72;4993582;28;20120;-77
2021/09/27 01:24:23;;;;;;;27.95;20.92;;;;;;;16.01;100.00;101410.88;4978004;28;20042;-75
2021/09/27 01:27:15;;;;;;;26.58;20.70;;;;;;;15.96;100.00;101414.03;4993409;28;20045;-75
2021/09/27 01:30:15;;;;;;;27.45;22.48;;;;;;;15.99;100.00;101421.63;4999204;28;20045;-77
2021/09/27 01:32:44;;;;;;;26.58;22.02;;;;;;;15.99;100.00;101434.03;5012179;28;20054;-77
2021/09/27 01:35:25;;;;;;;28.75;22.38;;;;;;;15.96;100.00;101433.38;5010693;28;20044;-76
2021/09/27 01:38:04;;;;;;;23.52;20.42;;;;;;;15.97;100.00;101436.84;4993452;28;20045;-75
2021/09/27 01:40:43;;;;;;;31.00;22.35;;;;;;;15.99;100.00;101436.69;5011800;28;20077;-77
2021/09/27 01:43:26;;;;;;;28.23;22.20;;;;;;;15.99;100.00;101431.41;4982639;28;20454;-76
2021/09/27 01:46:04;;;;;;;29.80;21.90;;;;;;;15.98;100.00;101435.06;4977327;28;20034;-76
2021/09/27 01:48:52;;;;;;;28.42;21.25;;;;;;;15.96;100.00;101436.03;5006250;28;20139;-75
2021/09/27 01:51:26;;;;;;;24.33;19.85;;;;;;;15.95;100.00;101430.91;4989998;28;20381;-76
2021/09/27 01:54:01;;;;;;;27.85;20.60;;;;;;;15.95;100.00;101433.53;4984109;28;20096;-76
2021/09/27 01:56:52;;;;;;;24.50;19.77;;;;;;;15.94;100.00;101434.56;5013505;28;20045;-74
2021/09/27 01:59:35;;;;;;;30.20;22.05;;;;;;;15.93;100.00;101433.69;4960227;28;20074;-75
2021/09/27 02:02:21;;;;;;;39.55;26.17;;;;;;;16.03;100.00;101443.31;4994701;28;20026;-78
2021/09/27 02:04:53;;;;;;;34.78;25.60;;;;;;;16.05;100.00;101451.91;4993304;28;20806;-77
2021/09/27 02:07:21;;;;;;;34.30;24.63;;;;;;;16.03;100.00;101451.25;4994390;28;20037;-77
2021/09/27 02:10:15;;;;;;;29.77;24.45;;;;;;;16.02;100.00;101453.06;4994444;28;20878;-78
2021/09/27 02:12:50;;;;;;;38.75;27.17;;;;;;;16.02;100.00;101449.59;4975674;28;20519;-77
2021/09/27 02:15:33;;;;;;;35.65;26.35;;;;;;;16.03;100.00;101449.44;4959334;28;20044;-75
2021/09/27 02:18:10;;;;;;;39.28;26.30;;;;;;;16.05;100.00;101457.19;4977661;28;20045;-78
2021/09/27 02:20:42;;;;;;;31.95;25.60;;;;;;;16.00;100.00;101444.47;5021393;28;20041;-77
2021/09/27 02:23:21;;;;;;;;;;;;;;;16.03;100.00;101446.78;5011058;28;20044;-79
2021/09/27 02:25:47;;;;;;;37.05;26.63;;;;;;;16.01;100.00;101442.63;4992933;28;19924;-76
2021/09/27 02:28:20;;;;;;;34.53;24.85;;;;;;;16.01;100.00;101442.63;4994707;28;20034;-78
2021/09/27 02:30:59;;;;;;;35.38;25.05;;;;;;;16.04;100.00;101444.97;5013033;28;20133;-74
2021/09/27 02:34:04;;;;;;;33.58;24.17;;;;;;;16.09;100.00;101455.91;4993930;28;20043;-73
2021/09/27 02:36:58;;;;;;;37.47;24.30;;;;;;;16.08;100.00;101457.69;4972829;28;20034;-76
2021/09/27 02:39:26;;;;;;;37.55;26.17;;;;;;;16.07;100.00;101448.13;4989484;28;20092;-77
2021/09/27 02:42:22;;;;;;;65.72;26.45;;;;;;;16.13;100.00;101436.84;4991955;28;20042;-78
2021/09/27 02:44:48;;;;;;;35.25;24.92;;;;;;;16.08;100.00;101433.88;5012119;28;20117;-77
2021/09/27 02:47:45;;;;;;;34.00;25.10;;;;;;;16.06;100.00;101421.81;5003183;28;20127;-75
2021/09/27 02:50:15;;;;;;;37.00;27.23;;;;;;;16.09;100.00;101424.13;4973351;28;20039;-78
2021/09/27 02:52:41;;;;;;;37.53;26.63;;;;;;;16.12;100.00;101429.94;4975861;28;20134;-78
2021/09/27 02:55:12;;;;;;;37.83;27.08;;;;;;;16.12;100.00;101422.00;4959645;28;20129;-78
2021/09/27 02:57:46;;;;;;;32.85;26.13;;;;;;;16.14;100.00;101427.94;4991899;28;20471;-78
2021/09/27 03:00:23;;;;;;;28.83;23.73;;;;;;;16.10;100.00;101426.59;4993018;28;20117;-78
2021/09/27 03:03:18;;;;;;;34.28;25.33;;;;;;;16.10;100.00;101431.88;4976748;28;20411;-75
2021/09/27 03:06:09;;;;;;;32.55;25.02;;;;;;;16.12;100.00;101437.88;4980469;28;20038;-77
2021/09/27 03:08:35;;;;;;;39.08;25.95;;;;;;;16.17;100.00;101447.13;4996780;28;20046;-75
2021/09/27 03:11:16;;;;;;;34.70;25.98;;;;;;;16.19;100.00;101455.72;5015979;28;20048;-77
2021/09/27 03:13:53;;;;;;;34.28;26.35;;;;;;;16.23;100.00;101457.03;4995996;28;20084;-74
2021/09/27 03:16:43;;;;;;;43.97;28.13;;;;;;;16.27;100.00;101469.75;4995423;28;20605;-77
2021/09/27 03:19:18;;;;;;;46.40;31.83;;;;;;;16.33;100.00;101473.56;4987201;28;20101;-75
2021/09/27 03:21:58;;;;;;;41.03;29.95;;;;;;;16.33;100.00;101471.75;4994614;28;20038;-78
2021/09/27 03:24:42;;;;;;;39.63;30.92;;;;;;;16.33;100.00;101466.47;4977221;28;20038;-76
2021/09/27 03:27:29;;;;;;;40.75;29.27;;;;;;;16.35;100.00;101463.66;4993625;28;20049;-76
2021/09/27 03:30:15;;;;;;;42.55;29.55;;;;;;;16.28;100.00;101458.19;4976512;28;20101;-80
2021/09/27 03:32:53;;;;;;;39.45;28.23;;;;;;;16.30;100.00;101464.16;4979997;28;20123;-77
2021/09/27 03:35:28;;;;;;;40.88;29.65;;;;;;;16.29;100.00;101474.91;4981201;28;20038;-73
2021/09/27 03:38:08;;;;;;;39.50;26.70;;;;;;;16.28;100.00;101473.25;4979513;28;20030;-77
2021/09/27 03:40:57;;;;;;;38.40;27.83;;;;;;;16.25;100.00;101463.00;4980425;28;20041;-76
2021/09/27 03:43:26;;;;;;;40.50;28.00;;;;;;;16.23;100.00;101460.50;4997500;28;20060;-79
2021/09/27 03:46:15;;;;;;;36.08;26.98;;;;;;;16.25;100.00;101450.56;4988728;28;20034;-78
2021/09/27 03:49:12;;;;;;;39.33;27.40;;;;;;;16.19;100.00;101445.94;4999309;28;20119;-79
2021/09/27 03:52:03;;;;;;;36.38;26.27;;;;;;;16.21;100.00;101449.25;4996919;28;20038;-73
2021/09/27 03:54:38;;;;;;;38.78;26.95;;;;;;;16.18;100.00;101446.97;4965121;28;20133;-77
2021/09/27 03:57:28;;;;;;;41.85;28.23;;;;;;;16.17;100.00;101447.13;4998475;28;20068;-76
2021/09/27 04:00:03;;;;;;;42.35;28.35;;;;;;;16.13;100.00;101447.44;5014912;28;20120;-74
2021/09/27 04:02:40;;;;;;;40.97;28.70;;;;;;;16.14;100.00;101446.47;5016295;28;20034;-78
2021/09/27 04:05:06;;;;;;;39.72;26.50;;;;;;;16.16;100.00;101454.22;5032215;28;20030;-75
2021/09/27 04:07:41;;;;;;;40.42;28.05;;;;;;;16.15;100.00;101447.28;4996034;28;20044;-75
2021/09/27 04:10:21;;;;;;;37.88;26.63;;;;;;;16.14;100.00;101450.91;5011186;28;20068;-76
2021/09/27 04:13:06;;;;;;;38.03;26.60;;;;;;;16.17;100.00;101449.78;5010765;28;20090;-77
2021/09/27 04:15:51;;;;;;;39.17;26.73;;;;;;;16.14;100.00;101446.47;5014024;28;20042;-76
2021/09/27 04:18:38;;;;;;;34.67;25.92;;;;;;;16.19;100.00;101448.59;4992724;28;20127;-76
2021/09/27 04:21:19;;;;;;;34.50;24.38;;;;;;;16.19;100.00;101455.72;4993489;28;20056;-77
2021/09/27 04:24:33;;;;;;;34.47;24.90;;;;;;;16.19;100.00;101439.84;4977814;28;20049;-75
2021/09/27 04:27:19;;;;;;;32.05;23.10;;;;;;;16.14;100.00;101442.97;4975671;28;20137;-76
2021/09/27 04:30:23;;;;;;;30.70;23.30;;;;;;;16.12;100.00;101439.66;4977129;28;20459;-75
2021/09/27 04:33:07;;;;;;;32.33;23.30;;;;;;;16.12;100.00;101437.03;4970570;28;20054;-74
2021/09/27 04:35:51;;;;;;;31.02;21.75;;;;;;;16.12;100.00;101432.56;4993552;28;20041;-76
2021/09/27 04:38:18;;;;;;;30.13;21.55;;;;;;;16.12;100.00;101434.38;4992857;28;20041;-76
2021/09/27 04:41:14;;;;;;;28.70;21.20;;;;;;;16.09;100.00;101430.25;4961028;28;20129;-75
2021/09/27 04:44:02;;;;;;;31.40;22.95;;;;;;;16.10;100.00;101434.53;5010571;28;20310;-76
2021/09/27 04:46:46;;;;;;;29.77;22.25;;;;;;;16.10;100.00;101423.94;4982476;28;20415;-75
2021/09/27 04:49:17;;;;;;;27.90;21.08;;;;;;;16.08;100.00;101425.13;5010793;28;20084;-76
2021/09/27 04:52:06;;;;;;;32.55;21.13;;;;;;;16.08;100.00;101423.28;4976946;28;20130;-75
2021/09/27 04:54:31;;;;;;;27.33;20.67;;;;;;;16.08;100.00;101422.47;4976857;28;20059;-76
2021/09/27 04:57:19;;;;;;;26.08;21.35;;;;;;;16.07;100.00;101415.53;4976746;28;20809;-76
2021/09/27 05:00:07;;;;;;;30.85;21.58;;;;;;;16.09;100.00;101426.78;5009746;28;20033;-75
2021/09/27 05:02:39;;;;;;;30.08;22.83;;;;;;;16.11;100.00;101424.78;4984132;28;20096;-73
2021/09/27 05:05:25;;;;;;;30.92;23.73;;;;;;;16.10;100.00;101423.13;4992997;28;20037;-74
2021/09/27 05:08:06;;;;;;;30.60;23.35;;;;;;;16.16;100.00;101419.81;4989578;28;20125;-75
2021/09/27 05:10:50;;;;;;;32.83;23.60;;;;;;;16.12;100.00;101416.69;4989409;28;20804;-75
2021/09/27 05:13:28;;;;;;;29.98;22.67;;;;;;;16.13;100.00;101414.88;4989979;28;20050;-76
2021/09/27 05:16:11;;;;;;;27.15;21.80;;;;;;;16.09;100.00;101405.63;4998965;28;20037;-77
2021/09/27 05:19:01;;;;;;;32.75;22.13;;;;;;;16.12;100.00;101407.91;5006293;28;20033;-77
2021/09/27 05:21:40;;;;;;;31.83;22.92;;;;;;;16.13;100.00;101414.88;4997820;23;20088;-78
2021/09/27 05:24:21;;;;;;;31.30;23.38;;;;;;;16.14;100.00;101411.22;5016458;28;20045;-79
2021/09/27 05:27:05;;;;;;;32.90;24.38;;;;;;;16.14;100.00;101406.78;5046522;28;20033;-79
2021/09/27 05:29:59;;;;;;;33.38;23.58;;;;;;;16.11;100.00;101414.22;5031115;28;20033;-78
2021/09/27 05:32:43;;;;;;;39.40;20.48;;;;;;;16.11;100.00;101406.28;5031232;28;20554;-80
2021/09/27 05:35:19;;;;;;;41.67;21.88;;;;;;;16.08;100.00;101399.47;5032732;28;20029;-79
2021/09/27 05:37:58;;;;;;;22.75;19.27;;;;;;;16.10;100.00;101401.97;5014358;28;20800;-80
2021/09/27 05:40:26;;;;;;;23.00;17.65;;;;;;;16.10;100.00;101383.44;5014505;28;20087;-78
2021/09/27 05:43:13;;;;;;;28.48;20.75;;;;;;;16.13;100.00;101391.06;5033653;28;20517;-81
2021/09/27 05:46:21;;;;;;;33.95;21.80;;;;;;;16.17;100.00;101394.19;5051108;28;20494;-79
2021/09/27 05:48:59;;;;;;;33.58;24.23;;;;;;;16.19;100.00;101408.09;4992996;28;20037;-79
2021/09/27 05:51:36;;;;;;;39.22;27.50;;;;;;;16.17;100.00;101394.19;5017152;28;20044;-79
2021/09/27 05:54:06;;;;;;;29.73;23.13;;;;;;;16.22;100.00;101405.09;5017535;28;20033;-78
2021/09/27 05:56:45;;;;;;;34.08;24.90;;;;;;;16.21;100.00;101401.63;4997105;28;20041;-79
2021/09/27 05:59:26;;;;;;;31.30;22.95;;;;;;;16.26;100.00;101409.06;5027559;28;20037;-81
2021/09/27 06:02:27;;;;;;;29.15;24.38;;;;;;;16.21;100.00;101401.63;5038448;28;20429;-79
2021/09/27 06:05:15;;;;;;;28.58;22.30;;;;;;;16.23;100.00;101394.34;5017019;28;20037;-76
2021/09/27 06:08:05;;;;;;;26.33;21.23;;;;;;;16.20;100.00;101391.19;5051988;28;20442;-81
2021/09/27 06:10:53;;;;;;;31.33;22.80;;;;;;;16.25;100.00;101394.16;5017300;28;20036;-78
2021/09/27 06:13:41;;;;;;;25.70;20.95;;;;;;;16.23;100.00;101396.16;5003586;28;20048;-77
2021/09/27 06:16:14;;;;;;;30.42;23.08;;;;;;;16.22;100.00;101391.84;5024794;28;20036;-78
2021/09/27 06:19:00;;;;;;;28.77;22.70;;;;;;;16.27;100.00;101398.28;5016636;28;20111;-79
2021/09/27 06:21:57;;;;;;;27.75;22.73;;;;;;;16.27;100.00;101392.19;5016597;28;20036;-77
2021/09/27 06:24:35;;;;;;;29.08;23.02;;;;;;;16.20;100.00;101383.25;5017011;28;20040;-78
2021/09/27 06:27:18;;;;;;;30.60;24.08;;;;;;;16.24;100.00;101397.81;5016699;28;20040;-80
2021/09/27 06:29:49;;;;;;;31.75;25.00;;;;;;;16.23;100.00;101398.81;5032751;28;20043;-80
2021/09/27 06:32:26;;;;;;;30.48;24.50;;;;;;;16.21;100.00;101406.91;5033135;28;20102;-80
2021/09/27 06:34:56;;;;;;;40.17;27.95;;;;;;;16.18;100.00;101398.47;5050937;28;20597;-78
2021/09/27 06:37:24;;;;;;;33.63;23.80;;;;;;;16.19;100.00;101400.97;4995975;28;20033;-79
2021/09/27 06:39:51;;;;;;;37.60;25.70;;;;;;;16.17;100.00;101404.78;5045282;28;20033;-79
2021/09/27 06:42:17;;;;;;;35.90;25.45;;;;;;;16.17;100.00;101400.31;5038034;28;20039;-78
2021/09/27 06:44:45;;;;;;;35.85;26.63;;;;;;;16.16;100.00;101393.34;5016471;28;20481;-78
2021/09/27 06:47:12;;;;;;;36.22;26.70;;;;;;;16.13;100.00;101377.81;5044679;28;20047;-79
2021/09/27 06:49:38;;;;;;;34.30;25.88;;;;;;;16.15;100.00;101384.59;5032792;28;20035;-78
2021/09/27 06:52:03;;;;;;;32.47;25.80;;;;;;;16.17;100.00;101383.59;5016740;28;20037;-80
2021/09/27 06:54:29;;;;;;;37.65;27.92;;;;;;;16.12;100.00;101378.81;5033490;28;20032;-80
2021/09/27 06:56:54;;;;;;;33.13;26.02;;;;;;;16.18;100.00;101387.88;5000212;28;20052;-80
2021/09/27 06:59:20;;;;;;;36.13;27.60;;;;;;;16.22;100.00;101378.63;5016949;28;20167;-78
2021/09/27 07:01:47;;;;;;;38.42;27.05;;;;;;;16.23;100.00;101388.22;5028958;28;20503;-79
2021/09/27 07:04:13;;;;;;;37.95;26.92;;;;;;;16.25;100.00;101392.34;5033246;28;20098;-78
2021/09/27 07:06:39;;;;;;;34.90;26.02;;;;;;;16.24;100.00;101388.06;5016835;28;20449;-78
2021/09/27 07:09:05;;;;;;;33.58;24.98;;;;;;;16.28;100.00;101389.38;5012910;28;20108;-79
2021/09/27 07:11:31;;;;;;;36.97;26.77;;;;;;;16.33;100.00;101391.50;4998895;28;20466;-79
2021/09/27 07:13:56;;;;;;;36.70;27.55;;;;;;;16.35;100.00;101395.66;5016798;28;20033;-79
2021/09/27 07:16:22;;;;;;;37.10;27.15;;;;;;;16.40;100.00;101399.59;5032575;28;20102;-79
2021/09/27 07:18:47;;;;;;;41.40;28.42;;;;;;;16.41;100.00;101404.75;5050572;28;20063;-78
2021/09/27 07:21:13;;;;;;;37.85;27.38;;;;;;;16.43;100.00;101401.94;5016044;28;20033;-79
2021/09/27 07:23:39;;;;;;;37.45;27.95;;;;;;;16.45;100.00;101408.69;5015949;28;20037;-81
2021/09/27 07:26:06;;;;;;;37.22;25.65;;;;;;;16.47;100.00;101400.59;5032373;28;20045;-79
2021/09/27 07:28:32;;;;;;;36.97;28.27;;;;;;;16.44;100.00;101391.16;5015602;28;20562;-77
2021/09/27 07:30:57;;;;;;;38.05;27.42;;;;;;;16.44;100.00;101390.31;5032644;28;20120;-79
2021/09/27 07:33:23;;;;;;;35.00;25.75;;;;;;;16.48;100.00;101400.44;5015921;28;20064;-80
2021/09/27 07:35:48;;;;;;;43.10;28.92;;;;;;;16.47;100.00;101387.34;5050352;28;20033;-79
2021/09/27 07:38:14;;;;;;;34.17;25.20;;;;;;;16.55;100.00;101398.72;5031903;28;20144;-79
2021/09/27 07:40:39;;;;;;;36.92;26.45;;;;;;;16.59;100.00;101390.44;5032575;28;20732;-80
2021/09/27 07:43:07;;;;;;;31.58;23.75;;;;;;;16.71;100.00;101399.69;5015858;28;20144;-79
2021/09/27 07:45:35;;;;;;;36.38;25.27;;;;;;;16.77;100.00;101401.66;5013976;28;20145;-79
2021/09/27 07:48:09;;;;;;;32.42;24.85;;;;;;;16.75;100.00;101395.72;5029723;28;20076;-79
2021/09/27 07:50:35;;;;;;;36.92;26.45;;;;;;;16.85;100.00;101395.53;5049911;28;20036;-78
2021/09/27 07:53:00;;;;;;;33.58;26.02;;;;;;;16.87;100.00;101399.66;5052981;28;20033;-80
2021/09/27 07:55:26;;;;;;;35.33;25.35;;;;;;;16.84;100.00;101396.50;5031966;28;20106;-77
2021/09/27 07:57:52;;;;;;;31.55;25.38;;;;;;;16.83;100.00;101397.53;5053724;28;20076;-78
2021/09/27 08:00:18;;;;;;;29.42;23.10;;;;;;;16.85;100.00;101412.25;5053920;28;20064;-79
2021/09/27 08:02:44;;;;;;;32.40;24.80;;;;;;;16.92;100.00;101410.56;5035862;28;20032;-79
2021/09/27 08:05:19;;;;;;;33.13;25.75;;;;;;;16.94;100.00;101415.69;5050682;28;20041;-80
2021/09/27 08:07:45;;;;;;;33.65;25.02;;;;;;;16.90;100.00;101411.75;5035175;28;20041;-80
2021/09/27 08:10:12;;;;;;;38.75;28.40;;;;;;;16.89;100.00;101418.84;5018998;28;20137;-80
2021/09/27 08:12:39;;;;;;;40.22;29.42;;;;;;;16.86;100.00;101411.25;5018986;28;20139;-79
2021/09/27 08:15:08;;;;;;;33.83;27.35;;;;;;;16.84;100.00;101407.97;5043660;28;20483;-77
2021/09/27 08:17:34;;;;;;;41.60;28.88;;;;;;;16.79;100.00;101406.78;5020991;28;20538;-77
2021/09/27 08:20:02;;;;;;;35.40;27.50;;;;;;;16.77;100.00;101401.66;5035445;28;20248;-78
2021/09/27 08:22:27;;;;;;;40.85;29.17;;;;;;;16.72;100.00;101407.44;5034768;28;20501;-79
2021/09/27 08:24:53;;;;;;;39.20;28.67;;;;;;;16.70;100.00;101398.03;5053530;28;20033;-77
2021/09/27 08:27:18;;;;;;;44.58;29.60;;;;;;;16.73;100.00;101409.13;5001976;28;20043;-78
2021/09/27 08:29:44;;;;;;;39.58;29.25;;;;;;;16.73;100.00;101406.47;5002314;28;20055;-78
2021/09/27 08:32:10;;;;;;;40.50;28.85;;;;;;;16.73;100.00;101410.94;5018233;28;20273;-78
2021/09/27 08:34:35;;;;;;;42.80;28.92;;;;;;;16.72;100.00;101410.09;5035210;28;20064;-77
2021/09/27 08:37:01;;;;;;;40.30;29.27;;;;;;;16.72;100.00;101411.94;5034781;28;20727;-79
2021/09/27 08:39:26;;;;;;;40.90;29.00;;;;;;;16.76;100.00;101413.22;5014526;28;20037;-79
2021/09/27 08:42:04;;;;;;;37.88;28.42;;;;;;;16.73;100.00;101414.41;5031764;28;20119;-79
2021/09/27 08:44:51;;;;;;;40.53;28.48;;;;;;;16.79;100.00;101422.69;5035447;28;20045;-80
2021/09/27 08:48:06;;;;;;;38.70;29.45;;;;;;;16.76;100.00;101421.19;5029736;28;20480;-78
2021/09/27 08:50:36;;;;;;;39.53;29.05;;;;;;;16.86;100.00;101429.81;4972165;28;20521;-77
2021/09/27 08:53:21;;;;;;;39.55;27.52;;;;;;;16.87;100.00;101431.44;4984309;28;20191;-77
2021/09/27 08:55:48;;;;;;;36.55;28.10;;;;;;;16.84;100.00;101429.16;5033499;28;20112;-78
2021/09/27 08:58:43;;;;;;;39.92;28.95;;;;;;;16.90;100.00;101427.63;5035110;28;20048;-78
2021/09/27 09:01:12;;;;;;;37.70;28.08;;;;;;;17.00;100.00;101428.25;5033503;28;20044;-77
2021/09/27 09:03:43;;;;;;;42.08;28.17;;;;;;;17.14;100.00;101432.03;5051275;28;20044;-78
2021/09/27 09:06:20;;;;;;;40.10;29.30;;;;;;;17.12;100.00;101434.00;5017293;28;20048;-78
2021/09/27 09:08:55;;;;;;;41.22;28.83;;;;;;;17.12;100.00;101432.19;5051340;28;20041;-79
2021/09/27 09:11:44;;;;;;;38.38;27.92;;;;;;;17.16;100.00;101421.22;5017297;28;20033;-79
2021/09/27 09:14:19;;;;;;;38.83;28.48;;;;;;;17.24;100.00;101424.66;5017456;28;20335;-77
2021/09/27 09:16:48;;;;;;;35.60;27.45;;;;;;;17.36;100.00;101421.63;5033398;28;20525;-79
2021/09/27 09:19:17;;;;;;;39.75;26.42;;;;;;;17.47;100.00;101426.53;5016669;28;20111;-78
2021/09/27 09:21:51;;;;;;;37.78;26.77;;;;;;;17.47;100.00;101418.56;5051493;28;20036;-80
2021/09/27 09:24:22;;;;;;;37.28;28.05;;;;;;;17.64;100.00;101427.25;5001033;28;20029;-80
2021/09/27 09:26:52;;;;;;;34.25;27.20;;;;;;;17.81;100.00;101420.81;5051364;28;20127;-78
2021/09/27 09:29:25;;;;;;;37.67;28.38;;;;;;;18.02;100.00;101411.38;5033400;28;20063;-80
2021/09/27 09:31:57;;;;;;;35.22;25.83;;;;;;;18.20;100.00;101413.72;5016662;28;20645;-79
2021/09/27 09:34:30;;;;;;;38.47;28.10;;;;;;;18.36;100.00;101418.03;5017572;28;20033;-79
2021/09/27 09:37:00;;;;;;;33.15;24.88;;;;;;;18.37;100.00;101417.06;5016936;28;20044;-79
2021/09/27 09:39:51;;;;;;;39.15;25.75;;;;;;;18.42;100.00;101412.00;5051505;28;20498;-78
2021/09/27 09:42:16;;;;;;;30.20;23.27;;;;;;;18.39;100.00;101430.97;5000671;28;20063;-79
2021/09/27 09:44:45;;;;;;;34.65;24.98;;;;;;;18.28;100.00;101425.09;5016826;28;20103;-79
2021/09/27 09:47:18;;;;;;;33.00;24.77;;;;;;;18.28;100.00;101414.47;5040848;28;20032;-79
2021/09/27 09:50:02;;;;;;;32.97;25.67;;;;;;;18.50;100.00;101414.59;5026646;28;20056;-79
2021/09/27 09:52:49;;;;;;;31.33;23.98;;;;;;;18.80;100.00;101420.75;5016497;28;20041;-78
2021/09/27 09:55:36;;;;;;;32.38;24.38;;;;;;;18.91;100.00;101416.81;5035650;28;20051;-80
2021/09/27 09:58:27;;;;;;;30.65;23.63;;;;;;;18.91;100.00;101397.34;5032569;28;20055;-79
2021/09/27 10:00:53;;;;;;;35.00;25.67;;;;;;;19.03;100.00;101409.19;5050035;28;20025;-80
2021/09/27 10:03:26;;;;;;;35.88;25.35;;;;;;;19.00;100.00;101410.34;5032855;28;20383;-81
2021/09/27 10:05:56;;;;;;;32.28;24.80;;;;;;;18.92;100.00;101407.00;5016890;28;20469;-80
2021/09/27 10:08:26;;;;;;;33.90;24.73;;;;;;;18.96;100.00;101400.28;5049869;28;20055;-80
2021/09/27 10:11:02;;;;;;;37.55;25.33;;;;;;;19.01;100.00;101401.38;5050803;28;20540;-79
2021/09/27 10:13:34;;;;;;;34.33;25.13;;;;;;;18.95;100.00;101406.59;5000594;28;20495;-78
2021/09/27 10:16:07;;;;;;;32.28;24.17;;;;;;;18.96;100.00;101400.28;5051025;28;20051;-79
2021/09/27 10:18:39;;;;;;;36.80;25.40;;;;;;;19.13;100.00;101403.56;5032701;28;20410;-80
2021/09/27 10:21:29;;;;;;;36.00;26.65;;;;;;;19.38;100.00;101409.34;5016393;28;20120;-79
2021/09/27 10:24:18;;;;;;;33.70;23.75;;;;;;;19.68;100.00;101403.91;5016909;28;20118;-79
2021/09/27 10:26:52;;;;;;;32.00;23.35;;;;;;;19.93;100.00;101405.22;5016319;28;20399;-80
2021/09/27 10:29:26;;;;;;;32.58;23.58;;;;;;;19.99;100.00;101407.09;4996540;28;20407;-80
2021/09/27 10:31:57;;;;;;;32.17;23.52;;;;;;;19.90;100.00;101407.44;5015926;28;20097;-79
2021/09/27 10:34:26;;;;;;;28.53;22.17;;;;;;;19.81;100.00;101404.88;5016398;28;20032;-80
2021/09/27 10:36:56;;;;;;;30.38;23.05;;;;;;;19.74;100.00;101404.03;5050089;28;20099;-78
2021/09/27 10:39:23;;;;;;;30.10;23.23;;;;;;;19.70;100.00;101397.38;4999922;28;20064;-80
2021/09/27 10:42:03;;;;;;;31.23;23.05;;;;;;;19.53;100.00;101394.16;5032257;28;20521;-78
2021/09/27 10:44:34;;;;;;;32.33;22.30;;;;;;;19.50;100.00;101388.41;5032987;28;20044;-79
2021/09/27 10:47:28;;;;;;;34.65;24.52;;;;;;;19.50;100.00;101386.56;5031206;28;20035;-77
2021/09/27 10:50:02;;;;;;;30.25;23.33;;;;;;;19.55;100.00;101381.50;5037836;28;20037;-80
2021/09/27 10:52:45;;;;;;;31.30;23.30;;;;;;;19.72;100.00;101375.91;5032451;28;20123;-79
2021/09/27 10:55:50;;;;;;;26.98;21.58;;;;;;;20.14;100.00;101383.03;5016203;28;20037;-80
2021/09/27 10:58:36;;;;;;;28.50;22.10;;;;;;;20.38;100.00;101379.09;5012319;28;20103;-79
2021/09/27 11:01:05;;;;;;;31.00;21.48;;;;;;;20.59;100.00;101388.03;5032852;28;20487;-79
2021/09/27 11:03:52;;;;;;;29.73;21.17;;;;;;;20.73;100.00;101387.09;5032274;28;20032;-80
2021/09/27 11:06:28;;;;;;;26.58;18.88;;;;;;;20.64;99.24;101376.81;5016423;28;20072;-79
2021/09/27 11:09:01;;;;;;;25.50;20.58;;;;;;;20.65;100.00;101381.13;5049864;28;20068;-78
2021/09/27 11:11:29;;;;;;;;;;;;;;;20.47;100.00;101376.28;5016352;28;20132;-78
2021/09/27 11:13:57;;;;;;;32.55;20.45;;;;;;;20.26;100.00;101382.50;5032322;28;19916;-78
2021/09/27 11:16:29;;;;;;;24.73;19.60;;;;;;;20.12;100.00;101382.41;5050119;28;20056;-78
2021/09/27 11:19:04;;;;;;;25.02;19.83;;;;;;;20.10;100.00;101386.28;5042023;28;20072;-78
2021/09/27 11:21:35;;;;;;;28.00;21.13;;;;;;;20.26;100.00;101377.19;5031979;28;20037;-78
2021/09/27 11:24:39;;;;;;;27.25;20.77;;;;;;;20.44;100.00;101369.50;5038945;22;20057;-77
2021/09/27 11:27:17;;;;;;;26.20;21.42;;;;;;;20.73;100.00;101372.94;5003138;28;20037;-81
2021/09/27 11:30:05;;;;;;;24.70;18.70;;;;;;;20.98;99.58;101376.75;5017896;28;20030;-79
2021/09/27 11:32:46;;;;;;;22.45;18.58;;;;;;;20.93;96.61;101368.53;4990790;28;20046;-80
2021/09/27 11:35:21;;;;;;;20.60;18.23;;;;;;;20.67;99.31;101371.09;5001848;28;20529;-81
2021/09/27 11:37:47;;;;;;;24.83;19.15;;;;;;;20.54;100.00;101372.63;5001129;28;20072;-81
2021/09/27 11:40:40;;;;;;;22.85;18.25;;;;;;;20.52;97.72;101371.19;5033979;28;20091;-81
2021/09/27 11:43:24;;;;;;;23.58;19.42;;;;;;;20.36;99.48;101361.66;4993253;28;20261;-82